sensor_id;sensor_type;location;lat;lon;timestamp;pressure;altitude;pressure_sealevel;temperature;humidity
15489;BME280;7846;48.830;9.116;2023-02-20T00:00:35;98966.13;;;12.53;62.81
15489;BME280;7846;48.830;9.116;2023-02-20T00:03:01;98968.78;;;12.33;63.24
15489;BME280;7846;48.830;9.116;2023-02-20T00:05:26;98962.78;;;12.51;63.06
15489;BME280;7846;48.830;9.116;2023-02-20T00:07:53;98959.22;;;12.42;63.12
15489;BME280;7846;48.830;9.116;2023-02-20T00:10:19;98959.06;;;12.44;63.13
15489;BME280;7846;48.830;9.116;2023-02-20T00:12:45;98957.94;;;12.46;62.93
15489;BME280;7846;48.830;9.116;2023-02-20T00:15:13;98959.03;;;13.10;61.48
15489;BME280;7846;48.830;9.116;2023-02-20T00:17:41;98949.19;;;12.36;62.53
15489;BME280;7846;48.830;9.116;2023-02-20T00:20:07;98951.69;;;12.18;63.51
15489;BME280;7846;48.830;9.116;2023-02-20T00:22:32;98952.53;;;12.19;63.63
15489;BME280;7846;48.830;9.116;2023-02-20T00:24:59;98951.13;;;12.05;63.60
15489;BME280;7846;48.830;9.116;2023-02-20T00:27:25;98949.75;;;12.30;63.16
15489;BME280;7846;48.830;9.116;2023-02-20T00:29:50;98958.66;;;12.09;63.35
15489;BME280;7846;48.830;9.116;2023-02-20T00:32:16;98951.56;;;12.10;63.26
15489;BME280;7846;48.830;9.116;2023-02-20T00:34:41;98959.06;;;12.05;62.75
15489;BME280;7846;48.830;9.116;2023-02-20T00:37:06;98961.97;;;12.11;62.99
15489;BME280;7846;48.830;9.116;2023-02-20T00:39:32;98966.03;;;12.06;63.09
15489;BME280;7846;48.830;9.116;2023-02-20T00:41:58;98971.56;;;12.22;62.43
15489;BME280;7846;48.830;9.116;2023-02-20T00:44:25;98988.22;;;12.23;62.22
15489;BME280;7846;48.830;9.116;2023-02-20T00:46:50;98987.81;;;12.08;62.79
15489;BME280;7846;48.830;9.116;2023-02-20T00:49:17;98985.25;;;11.77;63.01
15489;BME280;7846;48.830;9.116;2023-02-20T00:51:42;98988.34;;;11.92;63.21
15489;BME280;7846;48.830;9.116;2023-02-20T00:54:08;98987.25;;;11.95;63.35
15489;BME280;7846;48.830;9.116;2023-02-20T00:56:34;98984.94;;;11.71;63.80
15489;BME280;7846;48.830;9.116;2023-02-20T00:58:59;98986.44;;;11.54;64.21
15489;BME280;7846;48.830;9.116;2023-02-20T01:01:25;98984.25;;;11.69;64.00
15489;BME280;7846;48.830;9.116;2023-02-20T01:03:52;98986.91;;;11.69;64.21
15489;BME280;7846;48.830;9.116;2023-02-20T01:06:17;98979.81;;;11.69;64.05
15489;BME280;7846;48.830;9.116;2023-02-20T01:08:43;98988.16;;;11.65;63.76
15489;BME280;7846;48.830;9.116;2023-02-20T01:11:09;98987.41;;;11.53;64.27
15489;BME280;7846;48.830;9.116;2023-02-20T01:13:34;98992.44;;;11.66;63.76
15489;BME280;7846;48.830;9.116;2023-02-20T01:16:00;98989.34;;;11.51;64.26
15489;BME280;7846;48.830;9.116;2023-02-20T01:18:26;98983.09;;;11.52;64.24
15489;BME280;7846;48.830;9.116;2023-02-20T01:20:51;98968.19;;;11.31;64.18
15489;BME280;7846;48.830;9.116;2023-02-20T01:23:17;98972.53;;;11.11;65.11
15489;BME280;7846;48.830;9.116;2023-02-20T01:25:44;98965.00;;;11.28;64.44
15489;BME280;7846;48.830;9.116;2023-02-20T01:28:09;98962.47;;;11.17;64.43
15489;BME280;7846;48.830;9.116;2023-02-20T01:30:35;98959.84;;;11.26;64.17
15489;BME280;7846;48.830;9.116;2023-02-20T01:33:02;98968.78;;;11.35;63.76
15489;BME280;7846;48.830;9.116;2023-02-20T01:35:28;98972.78;;;10.99;65.01
15489;BME280;7846;48.830;9.116;2023-02-20T01:37:58;98959.16;;;11.24;64.44
15489;BME280;7846;48.830;9.116;2023-02-20T01:40:26;98959.25;;;11.13;64.29
15489;BME280;7846;48.830;9.116;2023-02-20T01:42:53;98963.59;;;11.24;64.21
15489;BME280;7846;48.830;9.116;2023-02-20T01:47:52;98966.97;;;11.45;63.74
15489;BME280;7846;48.830;9.116;2023-02-20T01:50:20;98958.50;;;11.32;63.80
15489;BME280;7846;48.830;9.116;2023-02-20T01:52:50;98959.00;;;11.16;64.14
15489;BME280;7846;48.830;9.116;2023-02-20T01:55:21;98950.56;;;10.92;64.68
15489;BME280;7846;48.830;9.116;2023-02-20T01:57:51;98945.00;;;11.25;63.75
15489;BME280;7846;48.830;9.116;2023-02-20T02:00:23;98945.53;;;11.19;63.44
15489;BME280;7846;48.830;9.116;2023-02-20T02:03:10;98943.75;;;11.29;63.34
15489;BME280;7846;48.830;9.116;2023-02-20T02:05:39;98938.69;;;11.07;63.77
15489;BME280;7846;48.830;9.116;2023-02-20T02:08:07;98942.63;;;11.22;63.10
15489;BME280;7846;48.830;9.116;2023-02-20T02:10:50;98941.84;;;11.01;63.95
15489;BME280;7846;48.830;9.116;2023-02-20T02:13:16;98948.50;;;10.95;64.05
15489;BME280;7846;48.830;9.116;2023-02-20T02:15:42;98944.09;;;11.05;63.18
15489;BME280;7846;48.830;9.116;2023-02-20T02:21:19;98945.84;;;10.95;63.97
15489;BME280;7846;48.830;9.116;2023-02-20T02:38:29;98942.88;;;11.50;62.78
15489;BME280;7846;48.830;9.116;2023-02-20T02:40:42;98945.19;;;11.43;63.22
15489;BME280;7846;48.830;9.116;2023-02-20T02:43:23;98943.13;;;11.47;63.00
15489;BME280;7846;48.830;9.116;2023-02-20T02:45:54;98937.44;;;11.51;62.51
15489;BME280;7846;48.830;9.116;2023-02-20T02:48:28;98937.84;;;11.47;62.94
15489;BME280;7846;48.830;9.116;2023-02-20T02:51:02;98935.50;;;11.44;62.79
15489;BME280;7846;48.830;9.116;2023-02-20T02:53:30;98934.50;;;11.45;62.93
15489;BME280;7846;48.830;9.116;2023-02-20T02:55:56;98925.16;;;11.31;62.95
15489;BME280;7846;48.830;9.116;2023-02-20T02:58:42;98926.31;;;11.38;62.93
15489;BME280;7846;48.830;9.116;2023-02-20T03:01:07;98918.91;;;11.12;63.00
15489;BME280;7846;48.830;9.116;2023-02-20T03:03:36;98917.34;;;11.10;63.70
15489;BME280;7846;48.830;9.116;2023-02-20T03:06:30;98924.31;;;11.21;63.71
15489;BME280;7846;48.830;9.116;2023-02-20T03:09:06;98921.25;;;11.15;63.92
15489;BME280;7846;48.830;9.116;2023-02-20T03:11:34;98915.13;;;11.15;63.58
15489;BME280;7846;48.830;9.116;2023-02-20T03:14:14;98918.84;;;11.03;64.01
15489;BME280;7846;48.830;9.116;2023-02-20T03:17:26;98919.25;;;10.98;64.30
15489;BME280;7846;48.830;9.116;2023-02-20T03:19:56;98921.22;;;11.06;64.10
15489;BME280;7846;48.830;9.116;2023-02-20T03:22:30;98924.78;;;11.35;63.21
15489;BME280;7846;48.830;9.116;2023-02-20T03:25:03;98923.19;;;11.13;63.69
15489;BME280;7846;48.830;9.116;2023-02-20T03:27:46;98923.25;;;11.33;63.13
15489;BME280;7846;48.830;9.116;2023-02-20T03:30:21;98916.72;;;11.37;62.63
15489;BME280;7846;48.830;9.116;2023-02-20T03:32:50;98913.00;;;11.39;62.58
15489;BME280;7846;48.830;9.116;2023-02-20T03:35:38;98908.22;;;11.14;64.20
15489;BME280;7846;48.830;9.116;2023-02-20T03:38:24;98914.63;;;11.21;63.22
15489;BME280;7846;48.830;9.116;2023-02-20T03:41:10;98927.56;;;11.44;62.95
15489;BME280;7846;48.830;9.116;2023-02-20T03:43:58;98919.91;;;11.31;62.70
15489;BME280;7846;48.830;9.116;2023-02-20T03:46:25;98921.91;;;11.08;63.66
15489;BME280;7846;48.830;9.116;2023-02-20T03:48:58;98922.78;;;11.18;63.88
15489;BME280;7846;48.830;9.116;2023-02-20T03:51:24;98920.56;;;11.13;63.96
15489;BME280;7846;48.830;9.116;2023-02-20T03:53:51;98925.69;;;11.15;64.17
15489;BME280;7846;48.830;9.116;2023-02-20T03:56:21;98916.13;;;11.14;63.78
15489;BME280;7846;48.830;9.116;2023-02-20T03:58:53;98921.94;;;11.18;64.07
15489;BME280;7846;48.830;9.116;2023-02-20T04:01:21;98913.91;;;11.19;63.48
15489;BME280;7846;48.830;9.116;2023-02-20T04:03:49;98924.72;;;10.85;64.41
15489;BME280;7846;48.830;9.116;2023-02-20T04:06:17;98916.97;;;10.84;64.52
15489;BME280;7846;48.830;9.116;2023-02-20T04:08:51;98914.25;;;10.95;64.88
15489;BME280;7846;48.830;9.116;2023-02-20T04:11:47;98906.91;;;10.99;64.27
15489;BME280;7846;48.830;9.116;2023-02-20T04:14:14;98903.72;;;10.95;64.30
15489;BME280;7846;48.830;9.116;2023-02-20T04:16:46;98894.31;;;11.02;64.35
15489;BME280;7846;48.830;9.116;2023-02-20T04:19:13;98895.72;;;10.76;64.45
15489;BME280;7846;48.830;9.116;2023-02-20T04:21:48;98884.00;;;10.89;64.34
15489;BME280;7846;48.830;9.116;2023-02-20T04:24:35;98892.50;;;11.03;64.32
15489;BME280;7846;48.830;9.116;2023-02-20T04:27:03;98894.16;;;10.94;63.84
15489;BME280;7846;48.830;9.116;2023-02-20T04:29:28;98905.94;;;11.00;63.60
15489;BME280;7846;48.830;9.116;2023-02-20T04:31:54;98893.75;;;10.99;63.58
15489;BME280;7846;48.830;9.116;2023-02-20T04:34:19;98895.25;;;10.92;64.47
15489;BME280;7846;48.830;9.116;2023-02-20T04:36:45;98891.44;;;11.15;63.18
15489;BME280;7846;48.830;9.116;2023-02-20T04:39:10;98887.91;;;10.95;64.16
15489;BME280;7846;48.830;9.116;2023-02-20T04:41:35;98894.06;;;11.15;63.39
15489;BME280;7846;48.830;9.116;2023-02-20T04:44:01;98894.88;;;11.06;63.65
15489;BME280;7846;48.830;9.116;2023-02-20T04:46:45;98895.56;;;11.08;63.15
15489;BME280;7846;48.830;9.116;2023-02-20T04:49:11;98905.78;;;10.92;64.09
15489;BME280;7846;48.830;9.116;2023-02-20T04:51:37;98899.09;;;10.87;64.10
15489;BME280;7846;48.830;9.116;2023-02-20T04:54:02;98905.06;;;10.89;63.36
15489;BME280;7846;48.830;9.116;2023-02-20T04:56:27;98918.44;;;10.98;63.42
15489;BME280;7846;48.830;9.116;2023-02-20T04:58:53;98915.59;;;10.59;64.40
15489;BME280;7846;48.830;9.116;2023-02-20T05:01:18;98900.59;;;10.50;64.71
15489;BME280;7846;48.830;9.116;2023-02-20T05:03:43;98907.13;;;10.55;64.31
15489;BME280;7846;48.830;9.116;2023-02-20T05:06:09;98915.19;;;10.63;64.10
15489;BME280;7846;48.830;9.116;2023-02-20T05:08:34;98915.69;;;10.78;63.27
15489;BME280;7846;48.830;9.116;2023-02-20T05:10:59;98898.97;;;10.58;63.75
15489;BME280;7846;48.830;9.116;2023-02-20T05:13:25;98906.63;;;10.40;64.88
15489;BME280;7846;48.830;9.116;2023-02-20T05:15:51;98908.56;;;10.38;64.99
15489;BME280;7846;48.830;9.116;2023-02-20T05:18:28;98898.97;;;10.37;65.30
15489;BME280;7846;48.830;9.116;2023-02-20T05:20:53;98906.63;;;10.40;64.87
15489;BME280;7846;48.830;9.116;2023-02-20T05:23:37;98898.53;;;10.53;64.87
15489;BME280;7846;48.830;9.116;2023-02-20T05:26:02;98900.31;;;10.53;64.60
15489;BME280;7846;48.830;9.116;2023-02-20T05:28:32;98901.03;;;10.34;64.99
15489;BME280;7846;48.830;9.116;2023-02-20T05:30:57;98902.38;;;10.28;64.62
15489;BME280;7846;48.830;9.116;2023-02-20T05:33:22;98901.16;;;10.32;65.34
15489;BME280;7846;48.830;9.116;2023-02-20T05:35:49;98897.56;;;10.54;64.16
15489;BME280;7846;48.830;9.116;2023-02-20T05:38:18;98901.25;;;10.73;63.86
15489;BME280;7846;48.830;9.116;2023-02-20T05:40:43;98898.97;;;10.37;64.81
15489;BME280;7846;48.830;9.116;2023-02-20T05:43:09;98895.63;;;10.56;64.24
15489;BME280;7846;48.830;9.116;2023-02-20T05:45:34;98903.13;;;10.19;64.66
15489;BME280;7846;48.830;9.116;2023-02-20T05:48:00;98901.59;;;10.16;65.11
15489;BME280;7846;48.830;9.116;2023-02-20T05:50:26;98899.22;;;9.49;66.18
15489;BME280;7846;48.830;9.116;2023-02-20T05:52:51;98900.84;;;9.18;67.71
15489;BME280;7846;48.830;9.116;2023-02-20T05:55:16;98898.91;;;9.31;67.52
15489;BME280;7846;48.830;9.116;2023-02-20T05:57:42;98903.59;;;9.28;67.52
15489;BME280;7846;48.830;9.116;2023-02-20T06:00:07;98900.56;;;9.32;67.41
15489;BME280;7846;48.830;9.116;2023-02-20T06:02:34;98903.00;;;9.02;68.63
15489;BME280;7846;48.830;9.116;2023-02-20T06:04:59;98901.56;;;9.20;67.84
15489;BME280;7846;48.830;9.116;2023-02-20T06:07:26;98899.41;;;9.14;67.78
15489;BME280;7846;48.830;9.116;2023-02-20T06:09:51;98901.69;;;9.07;68.17
15489;BME280;7846;48.830;9.116;2023-02-20T06:12:17;98901.09;;;9.04;68.36
15489;BME280;7846;48.830;9.116;2023-02-20T06:14:44;98897.03;;;9.11;67.89
15489;BME280;7846;48.830;9.116;2023-02-20T06:17:10;98905.13;;;9.08;68.16
15489;BME280;7846;48.830;9.116;2023-02-20T06:19:36;98901.31;;;9.01;68.28
15489;BME280;7846;48.830;9.116;2023-02-20T06:22:02;98907.66;;;8.98;68.46
15489;BME280;7846;48.830;9.116;2023-02-20T06:24:28;98908.88;;;8.94;68.95
15489;BME280;7846;48.830;9.116;2023-02-20T06:26:53;98911.97;;;8.88;68.82
15489;BME280;7846;48.830;9.116;2023-02-20T06:29:19;98904.66;;;9.25;69.04
15489;BME280;7846;48.830;9.116;2023-02-20T06:31:44;98906.84;;;8.86;69.21
15489;BME280;7846;48.830;9.116;2023-02-20T06:34:10;98909.47;;;8.86;69.65
15489;BME280;7846;48.830;9.116;2023-02-20T06:36:38;98908.13;;;8.92;69.46
15489;BME280;7846;48.830;9.116;2023-02-20T06:39:06;98901.31;;;9.01;69.18
15489;BME280;7846;48.830;9.116;2023-02-20T06:41:32;98913.63;;;8.66;70.17
15489;BME280;7846;48.830;9.116;2023-02-20T06:43:57;98924.34;;;8.63;70.60
15489;BME280;7846;48.830;9.116;2023-02-20T06:46:23;98919.47;;;9.69;66.82
15489;BME280;7846;48.830;9.116;2023-02-20T06:48:51;98925.22;;;9.20;68.13
15489;BME280;7846;48.830;9.116;2023-02-20T06:51:19;98927.84;;;9.20;68.17
15489;BME280;7846;48.830;9.116;2023-02-20T06:53:45;98924.97;;;9.66;67.29
15489;BME280;7846;48.830;9.116;2023-02-20T06:56:14;98919.66;;;9.34;68.00
15489;BME280;7846;48.830;9.116;2023-02-20T06:58:40;98933.31;;;9.28;67.80
15489;BME280;7846;48.830;9.116;2023-02-20T07:01:05;98930.09;;;9.25;68.06
15489;BME280;7846;48.830;9.116;2023-02-20T07:03:32;98930.53;;;9.84;67.17
15489;BME280;7846;48.830;9.116;2023-02-20T07:05:58;98926.22;;;9.51;66.86
15489;BME280;7846;48.830;9.116;2023-02-20T07:08:25;98930.41;;;9.54;66.79
15489;BME280;7846;48.830;9.116;2023-02-20T07:10:50;98932.44;;;9.50;67.33
15489;BME280;7846;48.830;9.116;2023-02-20T07:13:20;98934.56;;;9.56;67.45
15489;BME280;7846;48.830;9.116;2023-02-20T07:15:46;98932.16;;;9.64;67.66
15489;BME280;7846;48.830;9.116;2023-02-20T07:18:12;98934.03;;;9.74;66.96
15489;BME280;7846;48.830;9.116;2023-02-20T07:20:37;98948.16;;;10.37;66.42
15489;BME280;7846;48.830;9.116;2023-02-20T07:23:03;98935.69;;;10.60;64.76
15489;BME280;7846;48.830;9.116;2023-02-20T07:25:28;98936.97;;;10.96;63.81
15489;BME280;7846;48.830;9.116;2023-02-20T07:27:54;98938.53;;;10.99;63.50
15489;BME280;7846;48.830;9.116;2023-02-20T07:30:20;98934.59;;;11.24;62.77
15489;BME280;7846;48.830;9.116;2023-02-20T07:32:49;98937.00;;;11.36;62.63
15489;BME280;7846;48.830;9.116;2023-02-20T07:35:14;98936.69;;;11.20;62.48
15489;BME280;7846;48.830;9.116;2023-02-20T07:37:40;98937.97;;;11.35;62.44
15489;BME280;7846;48.830;9.116;2023-02-20T07:40:06;98940.53;;;11.66;61.74
15489;BME280;7846;48.830;9.116;2023-02-20T07:42:32;98944.81;;;11.67;61.01
15489;BME280;7846;48.830;9.116;2023-02-20T07:44:57;98939.94;;;11.53;61.68
15489;BME280;7846;48.830;9.116;2023-02-20T07:47:23;98943.03;;;11.77;61.44
15489;BME280;7846;48.830;9.116;2023-02-20T07:49:49;98936.72;;;11.99;60.56
15489;BME280;7846;48.830;9.116;2023-02-20T07:52:14;98940.03;;;11.92;60.19
15489;BME280;7846;48.830;9.116;2023-02-20T07:54:40;98936.41;;;12.12;59.69
15489;BME280;7846;48.830;9.116;2023-02-20T07:57:06;98938.63;;;12.26;60.09
15489;BME280;7846;48.830;9.116;2023-02-20T07:59:31;98926.66;;;12.61;58.57
15489;BME280;7846;48.830;9.116;2023-02-20T08:01:57;98928.13;;;12.73;58.90
15489;BME280;7846;48.830;9.116;2023-02-20T08:04:23;98924.13;;;13.06;58.01
15489;BME280;7846;48.830;9.116;2023-02-20T08:06:49;98928.03;;;12.65;58.57
15489;BME280;7846;48.830;9.116;2023-02-20T08:09:14;98923.66;;;12.83;58.15
15489;BME280;7846;48.830;9.116;2023-02-20T08:11:40;98927.75;;;12.58;58.35
15489;BME280;7846;48.830;9.116;2023-02-20T08:14:05;98921.41;;;13.16;57.18
15489;BME280;7846;48.830;9.116;2023-02-20T08:16:31;98906.34;;;12.99;57.11
15489;BME280;7846;48.830;9.116;2023-02-20T08:18:58;98907.84;;;12.64;58.24
15489;BME280;7846;48.830;9.116;2023-02-20T08:21:23;98906.53;;;12.88;57.45
15489;BME280;7846;48.830;9.116;2023-02-20T08:23:48;98912.28;;;13.11;56.69
15489;BME280;7846;48.830;9.116;2023-02-20T08:26:14;98905.56;;;13.26;56.37
15489;BME280;7846;48.830;9.116;2023-02-20T08:28:39;98904.94;;;13.77;55.14
15489;BME280;7846;48.830;9.116;2023-02-20T08:31:05;98916.13;;;13.26;55.48
15489;BME280;7846;48.830;9.116;2023-02-20T08:33:30;98912.44;;;13.09;55.60
15489;BME280;7846;48.830;9.116;2023-02-20T08:35:56;98909.06;;;13.17;56.01
15489;BME280;7846;48.830;9.116;2023-02-20T08:38:36;98911.47;;;13.38;55.29
15489;BME280;7846;48.830;9.116;2023-02-20T08:41:06;98909.59;;;13.48;54.86
15489;BME280;7846;48.830;9.116;2023-02-20T08:43:37;98906.38;;;13.54;54.78
15489;BME280;7846;48.830;9.116;2023-02-20T08:46:04;98901.78;;;13.92;54.15
15489;BME280;7846;48.830;9.116;2023-02-20T08:48:31;98909.56;;;13.58;54.35
15489;BME280;7846;48.830;9.116;2023-02-20T08:50:58;98908.31;;;13.52;53.59
15489;BME280;7846;48.830;9.116;2023-02-20T08:54:32;98901.72;;;13.84;53.50
15489;BME280;7846;48.830;9.116;2023-02-20T08:56:58;98906.47;;;13.98;52.99
15489;BME280;7846;48.830;9.116;2023-02-20T08:59:23;98905.84;;;14.22;51.88
15489;BME280;7846;48.830;9.116;2023-02-20T09:01:49;98907.94;;;14.18;52.54
15489;BME280;7846;48.830;9.116;2023-02-20T09:04:14;98902.66;;;14.00;52.37
15489;BME280;7846;48.830;9.116;2023-02-20T09:06:41;98908.72;;;14.11;51.97
15489;BME280;7846;48.830;9.116;2023-02-20T09:09:06;98895.94;;;14.06;51.63
15489;BME280;7846;48.830;9.116;2023-02-20T09:11:31;98897.97;;;14.12;51.91
15489;BME280;7846;48.830;9.116;2023-02-20T09:13:57;98896.75;;;14.24;51.25
15489;BME280;7846;48.830;9.116;2023-02-20T09:16:23;98887.72;;;14.35;51.24
15489;BME280;7846;48.830;9.116;2023-02-20T09:18:49;98880.97;;;14.59;50.65
15489;BME280;7846;48.830;9.116;2023-02-20T09:21:17;98876.22;;;15.13;49.69
15489;BME280;7846;48.830;9.116;2023-02-20T09:23:43;98877.41;;;15.10;48.99
15489;BME280;7846;48.830;9.116;2023-02-20T09:26:09;98876.72;;;15.08;49.75
15489;BME280;7846;48.830;9.116;2023-02-20T09:28:34;98872.28;;;15.17;49.07
15489;BME280;7846;48.830;9.116;2023-02-20T09:31:00;98872.91;;;15.61;48.21
15489;BME280;7846;48.830;9.116;2023-02-20T09:33:27;98860.84;;;15.91;47.71
15489;BME280;7846;48.830;9.116;2023-02-20T09:35:53;98877.84;;;15.56;47.96
15489;BME280;7846;48.830;9.116;2023-02-20T09:38:20;98872.22;;;15.59;48.30
15489;BME280;7846;48.830;9.116;2023-02-20T09:40:49;98864.81;;;16.28;47.41
15489;BME280;7846;48.830;9.116;2023-02-20T09:43:26;98866.91;;;15.43;48.33
15489;BME280;7846;48.830;9.116;2023-02-20T09:46:05;98866.41;;;15.39;48.81
15489;BME280;7846;48.830;9.116;2023-02-20T09:51:15;98862.94;;;15.55;49.11
15489;BME280;7846;48.830;9.116;2023-02-20T09:53:55;98858.50;;;16.05;47.95
15489;BME280;7846;48.830;9.116;2023-02-20T09:56:27;98867.91;;;15.58;48.71
15489;BME280;7846;48.830;9.116;2023-02-20T09:59:05;98865.66;;;16.04;48.31
15489;BME280;7846;48.830;9.116;2023-02-20T10:01:33;98857.53;;;15.97;48.54
15489;BME280;7846;48.830;9.116;2023-02-20T10:04:03;98862.25;;;15.53;48.86
15489;BME280;7846;48.830;9.116;2023-02-20T10:06:33;98855.28;;;15.44;49.95
15489;BME280;7846;48.830;9.116;2023-02-20T10:08:59;98847.13;;;15.37;49.44
15489;BME280;7846;48.830;9.116;2023-02-20T10:14:29;98847.13;;;15.37;49.83
15489;BME280;7846;48.830;9.116;2023-02-20T10:17:22;98844.16;;;15.40;49.98
15489;BME280;7846;48.830;9.116;2023-02-20T10:20:09;98848.16;;;15.44;49.53
15489;BME280;7846;48.830;9.116;2023-02-20T10:22:46;98833.13;;;15.69;49.28
15489;BME280;7846;48.830;9.116;2023-02-20T10:25:19;98827.31;;;15.90;49.44
15489;BME280;7846;48.830;9.116;2023-02-20T10:33:32;98825.16;;;16.18;47.97
15489;BME280;7846;48.830;9.116;2023-02-20T10:36:11;98827.41;;;16.46;47.87
15489;BME280;7846;48.830;9.116;2023-02-20T10:38:44;98837.19;;;16.62;46.86
15489;BME280;7846;48.830;9.116;2023-02-20T10:41:27;98832.28;;;16.02;47.98
15489;BME280;7846;48.830;9.116;2023-02-20T10:44:10;98824.25;;;16.42;47.02
15489;BME280;7846;48.830;9.116;2023-02-20T10:46:57;98833.22;;;16.58;46.99
15489;BME280;7846;48.830;9.116;2023-02-20T10:49:36;98825.44;;;16.40;46.99
15489;BME280;7846;48.830;9.116;2023-02-20T10:52:07;98820.19;;;16.87;46.67
15489;BME280;7846;48.830;9.116;2023-02-20T10:54:46;98813.41;;;17.08;45.94
15489;BME280;7846;48.830;9.116;2023-02-20T10:57:20;98802.16;;;16.98;45.70
15489;BME280;7846;48.830;9.116;2023-02-20T11:00:08;98806.75;;;17.43;45.09
15489;BME280;7846;48.830;9.116;2023-02-20T11:02:39;98804.66;;;17.53;45.25
15489;BME280;7846;48.830;9.116;2023-02-20T11:05:12;98811.19;;;17.20;45.11
15489;BME280;7846;48.830;9.116;2023-02-20T11:07:38;98806.88;;;17.18;44.49
15489;BME280;7846;48.830;9.116;2023-02-20T11:10:04;98805.72;;;17.44;44.19
15489;BME280;7846;48.830;9.116;2023-02-20T11:15:11;98797.09;;;17.88;43.87
15489;BME280;7846;48.830;9.116;2023-02-20T11:17:38;98793.97;;;17.84;43.32
15489;BME280;7846;48.830;9.116;2023-02-20T11:20:08;98786.34;;;17.35;44.04
15489;BME280;7846;48.830;9.116;2023-02-20T11:22:50;98788.47;;;17.40;44.47
15489;BME280;7846;48.830;9.116;2023-02-20T11:25:17;98790.09;;;17.18;43.64
15489;BME280;7846;48.830;9.116;2023-02-20T11:27:47;98786.25;;;17.89;43.63
15489;BME280;7846;48.830;9.116;2023-02-20T11:30:27;98774.84;;;17.81;43.42
15489;BME280;7846;48.830;9.116;2023-02-20T11:33:00;98765.66;;;17.83;44.15
15489;BME280;7846;48.830;9.116;2023-02-20T11:35:28;98762.38;;;17.81;43.81
15489;BME280;7846;48.830;9.116;2023-02-20T11:43:26;98759.78;;;18.41;42.19
15489;BME280;7846;48.830;9.116;2023-02-20T11:46:09;98757.72;;;18.43;42.45
15489;BME280;7846;48.830;9.116;2023-02-20T11:48:35;98742.59;;;18.73;42.15
15489;BME280;7846;48.830;9.116;2023-02-20T11:51:03;98744.53;;;19.00;41.91
15489;BME280;7846;48.830;9.116;2023-02-20T11:53:30;98739.91;;;19.09;41.77
15489;BME280;7846;48.830;9.116;2023-02-20T11:56:15;98749.25;;;18.83;41.56
15489;BME280;7846;48.830;9.116;2023-02-20T11:58:42;98727.53;;;19.23;40.02
15489;BME280;7846;48.830;9.116;2023-02-20T12:01:30;98728.22;;;19.10;40.10
15489;BME280;7846;48.830;9.116;2023-02-20T12:03:57;98717.34;;;19.12;40.53
15489;BME280;7846;48.830;9.116;2023-02-20T12:08:58;98711.69;;;19.00;41.17
15489;BME280;7846;48.830;9.116;2023-02-20T12:11:26;98713.63;;;18.25;41.76
15489;BME280;7846;48.830;9.116;2023-02-20T12:13:55;98706.00;;;18.07;42.02
15489;BME280;7846;48.830;9.116;2023-02-20T12:19:17;98692.41;;;18.68;41.23
15489;BME280;7846;48.830;9.116;2023-02-20T12:22:00;98692.72;;;18.73;40.97
15489;BME280;7846;48.830;9.116;2023-02-20T12:24:54;98692.88;;;19.29;39.76
15489;BME280;7846;48.830;9.116;2023-02-20T12:27:52;98684.41;;;18.83;40.17
15489;BME280;7846;48.830;9.116;2023-02-20T12:33:08;98661.75;;;19.37;39.82
15489;BME280;7846;48.830;9.116;2023-02-20T12:35:42;98670.06;;;19.05;39.68
15489;BME280;7846;48.830;9.116;2023-02-20T12:38:48;98651.53;;;19.19;39.77
15489;BME280;7846;48.830;9.116;2023-02-20T12:41:21;98652.84;;;19.29;40.17
15489;BME280;7846;48.830;9.116;2023-02-20T12:44:23;98651.97;;;19.22;40.69
15489;BME280;7846;48.830;9.116;2023-02-20T12:47:00;98646.44;;;19.80;39.79
15489;BME280;7846;48.830;9.116;2023-02-20T13:00:30;98626.00;;;21.49;36.58
15489;BME280;7846;48.830;9.116;2023-02-20T13:03:17;98624.94;;;21.04;36.77
15489;BME280;7846;48.830;9.116;2023-02-20T13:05:46;98620.22;;;21.59;35.70
15489;BME280;7846;48.830;9.116;2023-02-20T13:08:17;98620.31;;;22.04;35.21
15489;BME280;7846;48.830;9.116;2023-02-20T13:10:51;98609.19;;;22.14;34.40
15489;BME280;7846;48.830;9.116;2023-02-20T13:13:17;98603.06;;;23.40;33.14
15489;BME280;7846;48.830;9.116;2023-02-20T13:15:51;98588.16;;;23.62;32.96
15489;BME280;7846;48.830;9.116;2023-02-20T13:18:38;98589.16;;;24.05;30.96
15489;BME280;7846;48.830;9.116;2023-02-20T13:21:09;98591.06;;;23.36;30.31
15489;BME280;7846;48.830;9.116;2023-02-20T13:23:37;98587.91;;;23.89;30.19
15489;BME280;7846;48.830;9.116;2023-02-20T13:28:51;98565.81;;;23.43;29.95
15489;BME280;7846;48.830;9.116;2023-02-20T13:31:39;98562.31;;;23.61;28.63
15489;BME280;7846;48.830;9.116;2023-02-20T13:36:38;98540.41;;;23.58;28.81
15489;BME280;7846;48.830;9.116;2023-02-20T13:47:26;98533.72;;;23.49;28.57
15489;BME280;7846;48.830;9.116;2023-02-20T13:58:13;98525.44;;;23.87;26.15
15489;BME280;7846;48.830;9.116;2023-02-20T14:00:52;98514.94;;;24.15;26.93
15489;BME280;7846;48.830;9.116;2023-02-20T14:03:27;98515.66;;;24.41;26.51
15489;BME280;7846;48.830;9.116;2023-02-20T14:06:05;98512.34;;;24.39;26.88
15489;BME280;7846;48.830;9.116;2023-02-20T14:08:31;98516.88;;;24.57;27.12
15489;BME280;7846;48.830;9.116;2023-02-20T14:13:34;98504.75;;;23.87;27.43
15489;BME280;7846;48.830;9.116;2023-02-20T14:16:00;98507.78;;;23.54;30.98
15489;BME280;7846;48.830;9.116;2023-02-20T14:18:30;98520.16;;;22.93;32.57
15489;BME280;7846;48.830;9.116;2023-02-20T14:21:16;98521.44;;;22.21;34.34
15489;BME280;7846;48.830;9.116;2023-02-20T14:23:42;98516.75;;;22.10;34.86
15489;BME280;7846;48.830;9.116;2023-02-20T14:28:47;98491.81;;;22.48;32.53
15489;BME280;7846;48.830;9.116;2023-02-20T14:33:45;98495.00;;;23.13;30.67
15489;BME280;7846;48.830;9.116;2023-02-20T14:36:41;98490.91;;;22.54;28.79
15489;BME280;7846;48.830;9.116;2023-02-20T14:39:46;98497.28;;;23.89;28.03
15489;BME280;7846;48.830;9.116;2023-02-20T14:42:16;98470.06;;;24.28;26.98
15489;BME280;7846;48.830;9.116;2023-02-20T14:44:47;98474.72;;;24.21;28.26
15489;BME280;7846;48.830;9.116;2023-02-20T14:47:14;98481.66;;;23.25;28.90
15489;BME280;7846;48.830;9.116;2023-02-20T14:49:40;98466.84;;;23.77;29.82
15489;BME280;7846;48.830;9.116;2023-02-20T14:54:39;98471.38;;;24.37;27.89
15489;BME280;7846;48.830;9.116;2023-02-20T14:57:05;98479.56;;;25.07;28.16
15489;BME280;7846;48.830;9.116;2023-02-20T14:59:34;98453.31;;;24.14;28.65